sensor_id;sensor_type;location;lat;lon;timestamp;P1;durP1;ratioP1;P2;durP2;ratioP2
58083;SDS011;43882;51.550;11.858;2022-08-19T00:00:19;42.30;;;25.08;;
58083;SDS011;43882;51.550;11.858;2022-08-19T00:02:46;45.15;;;26.52;;
58083;SDS011;43882;51.550;11.858;2022-08-19T00:05:13;44.60;;;25.98;;
58083;SDS011;43882;51.550;11.858;2022-08-19T00:07:40;49.63;;;27.58;;
58083;SDS011;43882;51.550;11.858;2022-08-19T00:10:08;44.80;;;25.35;;
58083;SDS011;43882;51.550;11.858;2022-08-19T00:12:36;46.17;;;26.10;;
58083;SDS011;43882;51.550;11.858;2022-08-19T00:15:03;45.28;;;26.05;;
58083;SDS011;43882;51.550;11.858;2022-08-19T00:17:36;43.95;;;25.85;;
58083;SDS011;43882;51.550;11.858;2022-08-19T00:20:03;43.58;;;26.33;;
58083;SDS011;43882;51.550;11.858;2022-08-19T00:22:30;43.55;;;25.95;;
58083;SDS011;43882;51.550;11.858;2022-08-19T00:24:57;45.28;;;26.52;;
58083;SDS011;43882;51.550;11.858;2022-08-19T00:27:23;48.05;;;27.30;;
58083;SDS011;43882;51.550;11.858;2022-08-19T00:29:49;45.00;;;27.27;;
58083;SDS011;43882;51.550;11.858;2022-08-19T00:32:16;46.10;;;27.10;;
58083;SDS011;43882;51.550;11.858;2022-08-19T00:34:42;45.83;;;27.55;;
58083;SDS011;43882;51.550;11.858;2022-08-19T00:37:08;47.60;;;28.38;;
58083;SDS011;43882;51.550;11.858;2022-08-19T00:39:35;47.65;;;29.20;;
58083;SDS011;43882;51.550;11.858;2022-08-19T00:42:01;45.20;;;26.13;;
58083;SDS011;43882;51.550;11.858;2022-08-19T00:44:27;51.63;;;28.45;;
58083;SDS011;43882;51.550;11.858;2022-08-19T00:46:56;50.10;;;27.77;;
58083;SDS011;43882;51.550;11.858;2022-08-19T00:51:53;46.97;;;26.23;;
58083;SDS011;43882;51.550;11.858;2022-08-19T00:54:33;47.10;;;27.13;;
58083;SDS011;43882;51.550;11.858;2022-08-19T00:57:02;44.60;;;27.73;;
58083;SDS011;43882;51.550;11.858;2022-08-19T00:59:31;47.67;;;26.55;;
58083;SDS011;43882;51.550;11.858;2022-08-19T01:01:57;48.17;;;27.08;;
58083;SDS011;43882;51.550;11.858;2022-08-19T01:04:23;47.17;;;28.42;;
58083;SDS011;43882;51.550;11.858;2022-08-19T01:06:49;47.42;;;28.63;;
58083;SDS011;43882;51.550;11.858;2022-08-19T01:09:15;46.47;;;27.40;;
58083;SDS011;43882;51.550;11.858;2022-08-19T01:11:42;48.42;;;28.02;;
58083;SDS011;43882;51.550;11.858;2022-08-19T01:14:10;51.50;;;30.08;;
58083;SDS011;43882;51.550;11.858;2022-08-19T01:16:37;50.05;;;28.83;;
58083;SDS011;43882;51.550;11.858;2022-08-19T01:19:06;47.40;;;27.80;;
58083;SDS011;43882;51.550;11.858;2022-08-19T01:21:41;48.15;;;29.13;;
58083;SDS011;43882;51.550;11.858;2022-08-19T01:24:10;49.75;;;29.55;;
58083;SDS011;43882;51.550;11.858;2022-08-19T01:26:40;48.97;;;29.52;;
58083;SDS011;43882;51.550;11.858;2022-08-19T01:29:08;53.28;;;29.85;;
58083;SDS011;43882;51.550;11.858;2022-08-19T01:31:35;52.28;;;30.15;;
58083;SDS011;43882;51.550;11.858;2022-08-19T01:34:04;56.65;;;32.28;;
58083;SDS011;43882;51.550;11.858;2022-08-19T01:36:32;56.05;;;30.58;;
58083;SDS011;43882;51.550;11.858;2022-08-19T01:39:02;53.72;;;31.25;;
58083;SDS011;43882;51.550;11.858;2022-08-19T01:41:30;55.03;;;30.98;;
58083;SDS011;43882;51.550;11.858;2022-08-19T01:43:56;53.75;;;30.02;;
58083;SDS011;43882;51.550;11.858;2022-08-19T01:46:22;53.45;;;30.58;;
58083;SDS011;43882;51.550;11.858;2022-08-19T01:48:48;54.42;;;31.85;;
58083;SDS011;43882;51.550;11.858;2022-08-19T01:51:14;53.80;;;30.33;;
58083;SDS011;43882;51.550;11.858;2022-08-19T01:53:41;56.38;;;32.13;;
58083;SDS011;43882;51.550;11.858;2022-08-19T01:56:07;58.70;;;33.13;;
58083;SDS011;43882;51.550;11.858;2022-08-19T01:58:35;57.60;;;34.15;;
58083;SDS011;43882;51.550;11.858;2022-08-19T02:01:04;59.33;;;32.65;;
58083;SDS011;43882;51.550;11.858;2022-08-19T02:03:31;58.05;;;32.78;;
58083;SDS011;43882;51.550;11.858;2022-08-19T02:06:00;58.53;;;33.97;;
58083;SDS011;43882;51.550;11.858;2022-08-19T02:08:30;57.97;;;34.00;;
58083;SDS011;43882;51.550;11.858;2022-08-19T02:10:59;60.15;;;33.75;;
58083;SDS011;43882;51.550;11.858;2022-08-19T02:13:25;63.20;;;35.78;;
58083;SDS011;43882;51.550;11.858;2022-08-19T02:15:52;63.50;;;37.38;;
58083;SDS011;43882;51.550;11.858;2022-08-19T02:18:18;63.20;;;36.03;;
58083;SDS011;43882;51.550;11.858;2022-08-19T02:20:44;65.35;;;36.35;;
58083;SDS011;43882;51.550;11.858;2022-08-19T02:23:12;64.30;;;36.28;;
58083;SDS011;43882;51.550;11.858;2022-08-19T02:25:39;66.95;;;36.88;;
58083;SDS011;43882;51.550;11.858;2022-08-19T02:28:05;64.63;;;36.88;;
58083;SDS011;43882;51.550;11.858;2022-08-19T02:30:31;68.53;;;36.83;;
58083;SDS011;43882;51.550;11.858;2022-08-19T02:32:57;68.05;;;36.33;;
58083;SDS011;43882;51.550;11.858;2022-08-19T02:35:24;66.53;;;38.50;;
58083;SDS011;43882;51.550;11.858;2022-08-19T02:37:51;63.88;;;37.72;;
58083;SDS011;43882;51.550;11.858;2022-08-19T02:40:35;68.75;;;39.05;;
58083;SDS011;43882;51.550;11.858;2022-08-19T02:43:05;66.65;;;38.65;;
58083;SDS011;43882;51.550;11.858;2022-08-19T02:45:33;67.07;;;36.90;;
58083;SDS011;43882;51.550;11.858;2022-08-19T02:48:00;67.03;;;38.40;;
58083;SDS011;43882;51.550;11.858;2022-08-19T02:50:26;67.30;;;38.08;;
58083;SDS011;43882;51.550;11.858;2022-08-19T02:52:52;70.60;;;39.65;;
58083;SDS011;43882;51.550;11.858;2022-08-19T02:55:18;68.45;;;39.90;;
58083;SDS011;43882;51.550;11.858;2022-08-19T02:57:45;65.30;;;37.85;;
58083;SDS011;43882;51.550;11.858;2022-08-19T03:00:12;64.82;;;37.50;;
58083;SDS011;43882;51.550;11.858;2022-08-19T03:02:39;72.03;;;38.33;;
58083;SDS011;43882;51.550;11.858;2022-08-19T03:05:06;70.10;;;39.63;;
58083;SDS011;43882;51.550;11.858;2022-08-19T03:07:32;71.53;;;40.28;;
58083;SDS011;43882;51.550;11.858;2022-08-19T03:09:58;69.57;;;40.85;;
58083;SDS011;43882;51.550;11.858;2022-08-19T03:12:25;70.20;;;40.03;;
58083;SDS011;43882;51.550;11.858;2022-08-19T03:14:51;66.13;;;38.10;;
58083;SDS011;43882;51.550;11.858;2022-08-19T03:17:17;67.70;;;39.13;;
58083;SDS011;43882;51.550;11.858;2022-08-19T03:19:43;66.68;;;39.50;;
58083;SDS011;43882;51.550;11.858;2022-08-19T03:22:10;60.90;;;36.78;;
58083;SDS011;43882;51.550;11.858;2022-08-19T03:24:36;64.50;;;38.00;;
58083;SDS011;43882;51.550;11.858;2022-08-19T03:27:02;66.45;;;37.83;;
58083;SDS011;43882;51.550;11.858;2022-08-19T03:29:30;66.45;;;37.63;;
58083;SDS011;43882;51.550;11.858;2022-08-19T03:32:00;65.15;;;36.88;;
58083;SDS011;43882;51.550;11.858;2022-08-19T03:34:29;68.00;;;36.80;;
58083;SDS011;43882;51.550;11.858;2022-08-19T03:36:57;65.25;;;37.58;;
58083;SDS011;43882;51.550;11.858;2022-08-19T03:39:25;60.80;;;37.20;;
58083;SDS011;43882;51.550;11.858;2022-08-19T03:41:52;61.05;;;36.05;;
58083;SDS011;43882;51.550;11.858;2022-08-19T03:44:21;66.68;;;37.50;;
58083;SDS011;43882;51.550;11.858;2022-08-19T03:46:51;62.30;;;36.88;;
58083;SDS011;43882;51.550;11.858;2022-08-19T03:49:20;61.60;;;36.00;;
58083;SDS011;43882;51.550;11.858;2022-08-19T03:51:48;63.17;;;36.70;;
58083;SDS011;43882;51.550;11.858;2022-08-19T03:54:16;60.03;;;35.28;;
58083;SDS011;43882;51.550;11.858;2022-08-19T03:56:44;58.97;;;36.67;;
58083;SDS011;43882;51.550;11.858;2022-08-19T03:59:14;60.80;;;35.35;;
58083;SDS011;43882;51.550;11.858;2022-08-19T04:01:43;59.65;;;35.25;;
58083;SDS011;43882;51.550;11.858;2022-08-19T04:04:10;61.17;;;35.85;;
58083;SDS011;43882;51.550;11.858;2022-08-19T04:06:37;58.17;;;35.63;;
58083;SDS011;43882;51.550;11.858;2022-08-19T04:09:04;57.22;;;33.70;;
58083;SDS011;43882;51.550;11.858;2022-08-19T04:11:34;57.80;;;34.38;;
58083;SDS011;43882;51.550;11.858;2022-08-19T04:14:06;58.28;;;35.40;;
58083;SDS011;43882;51.550;11.858;2022-08-19T04:16:33;58.03;;;34.03;;
58083;SDS011;43882;51.550;11.858;2022-08-19T04:19:00;57.63;;;34.80;;
58083;SDS011;43882;51.550;11.858;2022-08-19T04:21:28;59.08;;;34.75;;
58083;SDS011;43882;51.550;11.858;2022-08-19T04:23:55;58.47;;;34.28;;
58083;SDS011;43882;51.550;11.858;2022-08-19T04:26:23;55.05;;;33.83;;
58083;SDS011;43882;51.550;11.858;2022-08-19T04:28:50;59.05;;;34.03;;
58083;SDS011;43882;51.550;11.858;2022-08-19T04:31:24;55.47;;;33.38;;
58083;SDS011;43882;51.550;11.858;2022-08-19T04:33:52;56.97;;;32.92;;
58083;SDS011;43882;51.550;11.858;2022-08-19T04:36:30;55.60;;;33.58;;
58083;SDS011;43882;51.550;11.858;2022-08-19T04:39:00;54.42;;;32.35;;
58083;SDS011;43882;51.550;11.858;2022-08-19T04:41:29;56.72;;;31.98;;
58083;SDS011;43882;51.550;11.858;2022-08-19T04:44:13;55.30;;;31.85;;
58083;SDS011;43882;51.550;11.858;2022-08-19T04:46:42;53.03;;;32.70;;
58083;SDS011;43882;51.550;11.858;2022-08-19T04:49:13;56.25;;;33.28;;
58083;SDS011;43882;51.550;11.858;2022-08-19T04:51:42;56.75;;;33.45;;
58083;SDS011;43882;51.550;11.858;2022-08-19T04:54:09;57.03;;;33.03;;
58083;SDS011;43882;51.550;11.858;2022-08-19T04:56:35;55.05;;;33.22;;
58083;SDS011;43882;51.550;11.858;2022-08-19T04:59:01;55.88;;;32.33;;
58083;SDS011;43882;51.550;11.858;2022-08-19T05:01:31;55.42;;;32.22;;
58083;SDS011;43882;51.550;11.858;2022-08-19T05:03:58;52.78;;;30.95;;
58083;SDS011;43882;51.550;11.858;2022-08-19T05:06:29;51.03;;;31.10;;
58083;SDS011;43882;51.550;11.858;2022-08-19T05:08:57;53.42;;;30.75;;
58083;SDS011;43882;51.550;11.858;2022-08-19T05:11:26;48.65;;;29.05;;
58083;SDS011;43882;51.550;11.858;2022-08-19T05:13:55;48.78;;;29.25;;
58083;SDS011;43882;51.550;11.858;2022-08-19T05:16:22;45.90;;;27.55;;
58083;SDS011;43882;51.550;11.858;2022-08-19T05:18:49;48.20;;;27.85;;
58083;SDS011;43882;51.550;11.858;2022-08-19T05:21:34;47.28;;;27.77;;
58083;SDS011;43882;51.550;11.858;2022-08-19T05:24:20;46.13;;;27.05;;
58083;SDS011;43882;51.550;11.858;2022-08-19T05:26:48;47.63;;;27.23;;
58083;SDS011;43882;51.550;11.858;2022-08-19T05:29:15;46.28;;;27.00;;
58083;SDS011;43882;51.550;11.858;2022-08-19T05:31:44;45.95;;;26.23;;
58083;SDS011;43882;51.550;11.858;2022-08-19T05:34:10;44.00;;;26.80;;
58083;SDS011;43882;51.550;11.858;2022-08-19T05:36:38;44.00;;;26.88;;
58083;SDS011;43882;51.550;11.858;2022-08-19T05:39:08;43.47;;;25.05;;
58083;SDS011;43882;51.550;11.858;2022-08-19T05:41:41;49.20;;;24.70;;
58083;SDS011;43882;51.550;11.858;2022-08-19T05:44:09;39.03;;;23.70;;
58083;SDS011;43882;51.550;11.858;2022-08-19T05:46:36;39.13;;;23.90;;
58083;SDS011;43882;51.550;11.858;2022-08-19T05:49:06;41.55;;;22.85;;
58083;SDS011;43882;51.550;11.858;2022-08-19T05:51:33;39.92;;;22.85;;
58083;SDS011;43882;51.550;11.858;2022-08-19T05:54:01;39.10;;;22.80;;
58083;SDS011;43882;51.550;11.858;2022-08-19T05:56:28;38.90;;;21.67;;
58083;SDS011;43882;51.550;11.858;2022-08-19T05:58:55;37.15;;;20.00;;
58083;SDS011;43882;51.550;11.858;2022-08-19T06:01:23;39.67;;;21.23;;
58083;SDS011;43882;51.550;11.858;2022-08-19T06:03:50;34.95;;;21.73;;
58083;SDS011;43882;51.550;11.858;2022-08-19T06:06:17;37.15;;;19.52;;
58083;SDS011;43882;51.550;11.858;2022-08-19T06:08:44;34.03;;;19.63;;
58083;SDS011;43882;51.550;11.858;2022-08-19T06:11:16;33.20;;;19.20;;
58083;SDS011;43882;51.550;11.858;2022-08-19T06:13:47;32.33;;;18.53;;
58083;SDS011;43882;51.550;11.858;2022-08-19T06:16:18;34.35;;;20.40;;
58083;SDS011;43882;51.550;11.858;2022-08-19T06:18:51;32.58;;;19.23;;
58083;SDS011;43882;51.550;11.858;2022-08-19T06:21:18;33.03;;;18.83;;
58083;SDS011;43882;51.550;11.858;2022-08-19T06:23:46;34.08;;;19.10;;
58083;SDS011;43882;51.550;11.858;2022-08-19T06:26:13;29.35;;;17.60;;
58083;SDS011;43882;51.550;11.858;2022-08-19T06:28:40;30.58;;;17.63;;
58083;SDS011;43882;51.550;11.858;2022-08-19T06:31:09;29.60;;;16.83;;
58083;SDS011;43882;51.550;11.858;2022-08-19T06:33:37;29.60;;;17.60;;
58083;SDS011;43882;51.550;11.858;2022-08-19T06:36:03;32.45;;;18.15;;
58083;SDS011;43882;51.550;11.858;2022-08-19T06:38:30;32.08;;;17.83;;
58083;SDS011;43882;51.550;11.858;2022-08-19T06:41:00;32.08;;;17.05;;
58083;SDS011;43882;51.550;11.858;2022-08-19T06:43:30;31.35;;;17.83;;
58083;SDS011;43882;51.550;11.858;2022-08-19T06:45:56;31.20;;;16.48;;
58083;SDS011;43882;51.550;11.858;2022-08-19T06:48:23;29.70;;;17.27;;
58083;SDS011;43882;51.550;11.858;2022-08-19T06:50:49;29.02;;;16.10;;
58083;SDS011;43882;51.550;11.858;2022-08-19T06:53:16;31.45;;;16.65;;
58083;SDS011;43882;51.550;11.858;2022-08-19T06:55:44;30.02;;;17.23;;
58083;SDS011;43882;51.550;11.858;2022-08-19T06:58:10;28.88;;;16.67;;
58083;SDS011;43882;51.550;11.858;2022-08-19T07:00:36;28.55;;;15.23;;
58083;SDS011;43882;51.550;11.858;2022-08-19T07:03:02;28.50;;;16.25;;
58083;SDS011;43882;51.550;11.858;2022-08-19T07:05:28;30.42;;;16.30;;
58083;SDS011;43882;51.550;11.858;2022-08-19T07:07:54;28.70;;;16.23;;
58083;SDS011;43882;51.550;11.858;2022-08-19T07:10:21;27.23;;;14.85;;
58083;SDS011;43882;51.550;11.858;2022-08-19T07:12:48;29.20;;;15.73;;
58083;SDS011;43882;51.550;11.858;2022-08-19T07:15:15;30.08;;;16.35;;
58083;SDS011;43882;51.550;11.858;2022-08-19T07:17:41;28.80;;;15.85;;
58083;SDS011;43882;51.550;11.858;2022-08-19T07:20:08;29.25;;;16.80;;
58083;SDS011;43882;51.550;11.858;2022-08-19T07:22:36;28.85;;;15.65;;
58083;SDS011;43882;51.550;11.858;2022-08-19T07:25:03;29.27;;;15.48;;
58083;SDS011;43882;51.550;11.858;2022-08-19T07:27:30;31.42;;;16.13;;
58083;SDS011;43882;51.550;11.858;2022-08-19T07:29:56;31.13;;;16.50;;
58083;SDS011;43882;51.550;11.858;2022-08-19T07:32:23;28.30;;;15.65;;
58083;SDS011;43882;51.550;11.858;2022-08-19T07:34:51;29.15;;;16.00;;
58083;SDS011;43882;51.550;11.858;2022-08-19T07:37:17;30.13;;;16.60;;
58083;SDS011;43882;51.550;11.858;2022-08-19T07:39:43;28.25;;;15.55;;
58083;SDS011;43882;51.550;11.858;2022-08-19T07:42:09;29.75;;;17.00;;
58083;SDS011;43882;51.550;11.858;2022-08-19T07:44:36;29.50;;;15.70;;
58083;SDS011;43882;51.550;11.858;2022-08-19T07:47:03;27.90;;;15.73;;
58083;SDS011;43882;51.550;11.858;2022-08-19T07:49:29;31.55;;;17.38;;
58083;SDS011;43882;51.550;11.858;2022-08-19T07:51:58;29.10;;;15.80;;
58083;SDS011;43882;51.550;11.858;2022-08-19T07:54:27;29.15;;;15.75;;
58083;SDS011;43882;51.550;11.858;2022-08-19T07:56:55;27.92;;;15.32;;
58083;SDS011;43882;51.550;11.858;2022-08-19T07:59:22;31.98;;;16.27;;
58083;SDS011;43882;51.550;11.858;2022-08-19T08:01:49;28.65;;;15.38;;
58083;SDS011;43882;51.550;11.858;2022-08-19T08:04:16;28.35;;;15.30;;
58083;SDS011;43882;51.550;11.858;2022-08-19T08:07:02;29.17;;;15.38;;
58083;SDS011;43882;51.550;11.858;2022-08-19T08:09:47;30.17;;;15.23;;
58083;SDS011;43882;51.550;11.858;2022-08-19T08:12:15;27.45;;;15.15;;
58083;SDS011;43882;51.550;11.858;2022-08-19T08:14:49;28.38;;;14.95;;
58083;SDS011;43882;51.550;11.858;2022-08-19T08:17:20;28.02;;;14.70;;
58083;SDS011;43882;51.550;11.858;2022-08-19T08:19:48;24.75;;;13.63;;
58083;SDS011;43882;51.550;11.858;2022-08-19T08:22:17;25.67;;;13.85;;
58083;SDS011;43882;51.550;11.858;2022-08-19T08:25:03;25.35;;;14.40;;
58083;SDS011;43882;51.550;11.858;2022-08-19T08:27:31;25.65;;;13.73;;
58083;SDS011;43882;51.550;11.858;2022-08-19T08:30:00;24.83;;;13.95;;
58083;SDS011;43882;51.550;11.858;2022-08-19T08:32:26;25.52;;;13.18;;
58083;SDS011;43882;51.550;11.858;2022-08-19T08:34:52;25.67;;;13.77;;
58083;SDS011;43882;51.550;11.858;2022-08-19T08:37:19;24.60;;;13.38;;
58083;SDS011;43882;51.550;11.858;2022-08-19T08:39:46;27.80;;;13.90;;
58083;SDS011;43882;51.550;11.858;2022-08-19T08:42:14;25.65;;;13.55;;
58083;SDS011;43882;51.550;11.858;2022-08-19T08:47:19;26.27;;;13.73;;
58083;SDS011;43882;51.550;11.858;2022-08-19T08:49:48;24.45;;;12.60;;
58083;SDS011;43882;51.550;11.858;2022-08-19T08:52:24;25.95;;;14.50;;
58083;SDS011;43882;51.550;11.858;2022-08-19T08:54:53;28.00;;;14.80;;
58083;SDS011;43882;51.550;11.858;2022-08-19T09:00:06;26.50;;;14.02;;
58083;SDS011;43882;51.550;11.858;2022-08-19T09:02:34;25.15;;;14.38;;
58083;SDS011;43882;51.550;11.858;2022-08-19T09:05:00;25.95;;;13.32;;
58083;SDS011;43882;51.550;11.858;2022-08-19T09:07:34;26.15;;;14.43;;
58083;SDS011;43882;51.550;11.858;2022-08-19T09:10:06;27.40;;;14.07;;
58083;SDS011;43882;51.550;11.858;2022-08-19T09:12:53;27.48;;;13.82;;
58083;SDS011;43882;51.550;11.858;2022-08-19T09:15:42;25.65;;;12.93;;
58083;SDS011;43882;51.550;11.858;2022-08-19T09:18:10;28.67;;;14.45;;
58083;SDS011;43882;51.550;11.858;2022-08-19T09:20:37;26.27;;;13.63;;
58083;SDS011;43882;51.550;11.858;2022-08-19T09:23:03;26.95;;;13.70;;
58083;SDS011;43882;51.550;11.858;2022-08-19T09:25:29;25.45;;;13.90;;
58083;SDS011;43882;51.550;11.858;2022-08-19T09:27:56;27.35;;;13.98;;
58083;SDS011;43882;51.550;11.858;2022-08-19T09:30:28;25.10;;;12.98;;
58083;SDS011;43882;51.550;11.858;2022-08-19T09:32:58;23.35;;;12.48;;
58083;SDS011;43882;51.550;11.858;2022-08-19T09:35:25;27.30;;;13.55;;
58083;SDS011;43882;51.550;11.858;2022-08-19T09:37:53;26.50;;;13.25;;
58083;SDS011;43882;51.550;11.858;2022-08-19T09:40:20;27.13;;;12.70;;
58083;SDS011;43882;51.550;11.858;2022-08-19T09:42:46;23.95;;;12.20;;
58083;SDS011;43882;51.550;11.858;2022-08-19T09:45:13;23.52;;;11.57;;
58083;SDS011;43882;51.550;11.858;2022-08-19T09:47:40;23.48;;;11.40;;
58083;SDS011;43882;51.550;11.858;2022-08-19T09:50:08;22.85;;;11.98;;
58083;SDS011;43882;51.550;11.858;2022-08-19T09:52:35;22.27;;;11.43;;
58083;SDS011;43882;51.550;11.858;2022-08-19T09:55:03;23.92;;;12.20;;
58083;SDS011;43882;51.550;11.858;2022-08-19T09:57:30;26.58;;;12.68;;
58083;SDS011;43882;51.550;11.858;2022-08-19T09:59:56;25.30;;;12.27;;
58083;SDS011;43882;51.550;11.858;2022-08-19T10:02:22;25.13;;;12.40;;
58083;SDS011;43882;51.550;11.858;2022-08-19T10:04:49;24.73;;;12.23;;
58083;SDS011;43882;51.550;11.858;2022-08-19T10:07:34;26.80;;;13.68;;
58083;SDS011;43882;51.550;11.858;2022-08-19T10:10:00;23.35;;;12.73;;
58083;SDS011;43882;51.550;11.858;2022-08-19T10:12:31;27.15;;;13.40;;
58083;SDS011;43882;51.550;11.858;2022-08-19T10:14:58;25.48;;;13.50;;
58083;SDS011;43882;51.550;11.858;2022-08-19T10:17:24;26.77;;;13.68;;
58083;SDS011;43882;51.550;11.858;2022-08-19T10:19:51;28.15;;;13.27;;
58083;SDS011;43882;51.550;11.858;2022-08-19T10:22:17;24.80;;;13.73;;
58083;SDS011;43882;51.550;11.858;2022-08-19T10:24:45;25.17;;;13.65;;
58083;SDS011;43882;51.550;11.858;2022-08-19T10:27:11;25.08;;;13.80;;
58083;SDS011;43882;51.550;11.858;2022-08-19T10:29:39;24.80;;;13.43;;
58083;SDS011;43882;51.550;11.858;2022-08-19T10:32:06;22.95;;;12.35;;
58083;SDS011;43882;51.550;11.858;2022-08-19T10:34:33;22.63;;;12.27;;
58083;SDS011;43882;51.550;11.858;2022-08-19T10:37:03;23.75;;;11.65;;
58083;SDS011;43882;51.550;11.858;2022-08-19T10:39:31;22.70;;;11.00;;
58083;SDS011;43882;51.550;11.858;2022-08-19T10:41:58;22.85;;;11.27;;
58083;SDS011;43882;51.550;11.858;2022-08-19T10:44:29;22.85;;;11.48;;
58083;SDS011;43882;51.550;11.858;2022-08-19T10:46:55;22.42;;;11.75;;
58083;SDS011;43882;51.550;11.858;2022-08-19T10:49:21;22.15;;;11.60;;
58083;SDS011;43882;51.550;11.858;2022-08-19T10:51:49;24.73;;;12.75;;
58083;SDS011;43882;51.550;11.858;2022-08-19T10:54:33;26.20;;;13.77;;
58083;SDS011;43882;51.550;11.858;2022-08-19T10:57:18;25.55;;;13.40;;
58083;SDS011;43882;51.550;11.858;2022-08-19T10:59:44;26.95;;;13.93;;
58083;SDS011;43882;51.550;11.858;2022-08-19T11:02:10;25.30;;;13.18;;
58083;SDS011;43882;51.550;11.858;2022-08-19T11:04:38;26.15;;;13.65;;
58083;SDS011;43882;51.550;11.858;2022-08-19T11:07:05;25.30;;;12.60;;
58083;SDS011;43882;51.550;11.858;2022-08-19T11:09:31;25.08;;;13.15;;
58083;SDS011;43882;51.550;11.858;2022-08-19T11:12:01;24.42;;;12.75;;
58083;SDS011;43882;51.550;11.858;2022-08-19T11:14:28;26.67;;;13.43;;
58083;SDS011;43882;51.550;11.858;2022-08-19T11:16:55;23.27;;;12.45;;
58083;SDS011;43882;51.550;11.858;2022-08-19T11:19:22;25.20;;;12.90;;
58083;SDS011;43882;51.550;11.858;2022-08-19T11:21:49;24.15;;;12.18;;
58083;SDS011;43882;51.550;11.858;2022-08-19T11:24:18;24.75;;;12.60;;
58083;SDS011;43882;51.550;11.858;2022-08-19T11:26:46;26.02;;;12.80;;
58083;SDS011;43882;51.550;11.858;2022-08-19T11:29:17;24.75;;;12.77;;
58083;SDS011;43882;51.550;11.858;2022-08-19T11:31:45;23.02;;;12.73;;
58083;SDS011;43882;51.550;11.858;2022-08-19T11:34:14;23.45;;;12.05;;
58083;SDS011;43882;51.550;11.858;2022-08-19T11:36:42;25.33;;;12.40;;
58083;SDS011;43882;51.550;11.858;2022-08-19T11:39:10;26.15;;;13.05;;
58083;SDS011;43882;51.550;11.858;2022-08-19T11:41:38;24.70;;;13.50;;
58083;SDS011;43882;51.550;11.858;2022-08-19T11:44:04;24.85;;;13.73;;
58083;SDS011;43882;51.550;11.858;2022-08-19T11:46:33;24.02;;;13.60;;
58083;SDS011;43882;51.550;11.858;2022-08-19T11:49:00;24.48;;;13.10;;
58083;SDS011;43882;51.550;11.858;2022-08-19T11:51:28;25.27;;;13.43;;
58083;SDS011;43882;51.550;11.858;2022-08-19T11:53:55;23.85;;;13.05;;
58083;SDS011;43882;51.550;11.858;2022-08-19T11:56:22;24.13;;;12.57;;
58083;SDS011;43882;51.550;11.858;2022-08-19T11:58:50;24.42;;;12.48;;
58083;SDS011;43882;51.550;11.858;2022-08-19T12:01:17;23.65;;;11.98;;
58083;SDS011;43882;51.550;11.858;2022-08-19T12:03:46;22.40;;;12.23;;
58083;SDS011;43882;51.550;11.858;2022-08-19T12:06:14;22.52;;;11.38;;
58083;SDS011;43882;51.550;11.858;2022-08-19T12:08:48;22.10;;;11.02;;
58083;SDS011;43882;51.550;11.858;2022-08-19T12:11:14;21.75;;;10.60;;
58083;SDS011;43882;51.550;11.858;2022-08-19T12:13:40;22.25;;;10.95;;
58083;SDS011;43882;51.550;11.858;2022-08-19T12:16:10;23.33;;;11.88;;
58083;SDS011;43882;51.550;11.858;2022-08-19T12:18:38;21.92;;;11.02;;
58083;SDS011;43882;51.550;11.858;2022-08-19T12:21:07;24.45;;;11.15;;
58083;SDS011;43882;51.550;11.858;2022-08-19T12:23:35;21.80;;;9.88;;
58083;SDS011;43882;51.550;11.858;2022-08-19T12:26:02;20.48;;;9.35;;
58083;SDS011;43882;51.550;11.858;2022-08-19T12:28:29;22.05;;;9.80;;
58083;SDS011;43882;51.550;11.858;2022-08-19T12:30:55;19.92;;;10.32;;
58083;SDS011;43882;51.550;11.858;2022-08-19T12:33:22;23.05;;;10.82;;
58083;SDS011;43882;51.550;11.858;2022-08-19T12:35:51;21.08;;;9.43;;
58083;SDS011;43882;51.550;11.858;2022-08-19T12:38:17;20.45;;;10.18;;
58083;SDS011;43882;51.550;11.858;2022-08-19T12:40:47;19.95;;;10.05;;
58083;SDS011;43882;51.550;11.858;2022-08-19T12:43:14;21.63;;;10.57;;
58083;SDS011;43882;51.550;11.858;2022-08-19T12:45:41;22.35;;;10.70;;
58083;SDS011;43882;51.550;11.858;2022-08-19T12:48:07;23.67;;;10.98;;
58083;SDS011;43882;51.550;11.858;2022-08-19T12:50:34;22.77;;;11.38;;
58083;SDS011;43882;51.550;11.858;2022-08-19T12:53:00;26.83;;;12.80;;
58083;SDS011;43882;51.550;11.858;2022-08-19T12:55:26;25.77;;;13.73;;
58083;SDS011;43882;51.550;11.858;2022-08-19T12:57:53;28.17;;;14.30;;
58083;SDS011;43882;51.550;11.858;2022-08-19T13:00:20;26.58;;;14.57;;
58083;SDS011;43882;51.550;11.858;2022-08-19T13:02:48;28.33;;;16.02;;
58083;SDS011;43882;51.550;11.858;2022-08-19T13:05:20;28.52;;;15.52;;
58083;SDS011;43882;51.550;11.858;2022-08-19T13:07:48;29.15;;;15.75;;
58083;SDS011;43882;51.550;11.858;2022-08-19T13:10:16;29.40;;;16.63;;
58083;SDS011;43882;51.550;11.858;2022-08-19T13:12:44;30.70;;;17.33;;
58083;SDS011;43882;51.550;11.858;2022-08-19T13:15:12;30.35;;;17.10;;
58083;SDS011;43882;51.550;11.858;2022-08-19T13:17:40;29.30;;;16.58;;
58083;SDS011;43882;51.550;11.858;2022-08-19T13:20:07;30.08;;;16.88;;
58083;SDS011;43882;51.550;11.858;2022-08-19T13:22:35;31.15;;;17.35;;
58083;SDS011;43882;51.550;11.858;2022-08-19T13:25:03;36.08;;;22.65;;
58083;SDS011;43882;51.550;11.858;2022-08-19T13:27:30;31.08;;;18.33;;
58083;SDS011;43882;51.550;11.858;2022-08-19T13:29:56;40.60;;;26.10;;
58083;SDS011;43882;51.550;11.858;2022-08-19T13:32:43;30.63;;;18.60;;
58083;SDS011;43882;51.550;11.858;2022-08-19T13:35:28;29.77;;;17.75;;
58083;SDS011;43882;51.550;11.858;2022-08-19T13:37:54;36.05;;;25.13;;
58083;SDS011;43882;51.550;11.858;2022-08-19T13:40:21;35.17;;;24.10;;
58083;SDS011;43882;51.550;11.858;2022-08-19T13:42:51;33.28;;;21.17;;
58083;SDS011;43882;51.550;11.858;2022-08-19T13:45:19;31.92;;;18.65;;
58083;SDS011;43882;51.550;11.858;2022-08-19T13:47:47;34.97;;;23.73;;
58083;SDS011;43882;51.550;11.858;2022-08-19T13:50:19;35.67;;;22.77;;
58083;SDS011;43882;51.550;11.858;2022-08-19T13:52:46;31.05;;;20.00;;
58083;SDS011;43882;51.550;11.858;2022-08-19T13:55:13;29.92;;;17.90;;
58083;SDS011;43882;51.550;11.858;2022-08-19T13:57:39;30.77;;;21.45;;
58083;SDS011;43882;51.550;11.858;2022-08-19T14:00:11;31.27;;;21.05;;
58083;SDS011;43882;51.550;11.858;2022-08-19T14:02:39;31.85;;;19.38;;
58083;SDS011;43882;51.550;11.858;2022-08-19T14:05:07;27.77;;;16.95;;
58083;SDS011;43882;51.550;11.858;2022-08-19T14:07:35;27.83;;;15.45;;
58083;SDS011;43882;51.550;11.858;2022-08-19T14:10:03;28.00;;;16.30;;
58083;SDS011;43882;51.550;11.858;2022-08-19T14:12:31;27.33;;;16.60;;
58083;SDS011;43882;51.550;11.858;2022-08-19T14:14:57;26.10;;;16.00;;
58083;SDS011;43882;51.550;11.858;2022-08-19T14:17:23;26.02;;;15.95;;
58083;SDS011;43882;51.550;11.858;2022-08-19T14:19:50;26.63;;;15.25;;
58083;SDS011;43882;51.550;11.858;2022-08-19T14:22:28;24.65;;;14.82;;